Flight Track Log - Related Links

Times and Time Zones

All times are in EDT time to prevent confusion due to time zone crossing. See the UCA596 flight status page for this flight to view local times or setup timezone preferences in your user account.

Time Position Orientation Groundspeed Altitude Reporting Facility
EDT Latitude Longitude Course Direction KTS MPH feet Rate Location/Type
Wed 01:05:39 PM 38.9667 -77.5000 322° Northwest 153 176 2,400  Level Potomac TRACON
Wed 01:06:33 PM 39.0000 -77.5333 322° Northwest 173 199 4,000 1,684 Climbing Potomac TRACON
Wed 01:07:33 PM 39.0500 -77.5667 333° Northwest 177 204 5,600 1,650 Climbing Potomac TRACON
Wed 01:08:33 PM 39.0833 -77.6000 322° Northwest 179 206 7,300 1,700 Climbing Potomac TRACON
Wed 01:09:33 PM 39.1333 -77.6333 333° Northwest 180 207 9,000 1,600 Climbing Potomac TRACON
Wed 01:10:33 PM 39.1833 -77.6667 333° Northwest 183 211 10,500 1,350 Climbing Potomac TRACON
Wed 01:11:33 PM 39.2333 -77.6833 346° North 205 236 11,700 1,252 Climbing Potomac TRACON
Wed 01:12:28 PM 39.2833 -77.6500 27° Northeast 219 252 12,900 1,200 Climbing Potomac TRACON
Wed 01:13:28 PM 39.3333 -77.6167 27° Northeast 218 251 14,000 1,250 Climbing Potomac TRACON
Wed 01:14:52 PM 39.4056 -77.5792 22° Northeast 219 252 15,900 1,250 Climbing Washington Center
Wed 01:15:52 PM 39.4603 -77.5511 22° Northeast 214 246 17,000 992 Climbing Washington Center
Wed 01:16:53 PM 39.5169 -77.5231 21° North 214 246 17,900 305 Climbing Washington Center
Wed 01:19:09 PM 39.6642 -77.4433 23° Northeast 265 305 18,000 184 Climbing New York Center
Wed 01:20:09 PM 39.7411 -77.4075 20° North 266 306 18,500 500 Climbing New York Center
Wed 01:21:09 PM 39.7992 -77.3778 21° North 253 291 19,000 250 Climbing New York Center
Wed 01:22:09 PM 39.8744 -77.3389 22° Northeast 253 291 19,000  Level New York Center
Wed 01:23:09 PM 39.9344 -77.3094 21° North 258 297 19,000  Level New York Center
Wed 01:24:09 PM 40.0094 -77.2703 22° Northeast 258 297 19,000  Level New York Center
Wed 01:25:09 PM 40.0717 -77.2408 20° North 258 297 19,000  Level New York Center
Wed 01:26:09 PM 40.1489 -77.1992 22° Northeast 258 297 19,000  Level New York Center
Wed 01:27:09 PM 40.2111 -77.1694 20° North 258 297 19,000  Level New York Center
Wed 01:28:09 PM 40.2861 -77.1300 22° Northeast 258 297 19,000  Level New York Center
Wed 01:29:09 PM 40.3503 -77.1006 19° North 258 297 19,000  Level New York Center
Wed 01:30:09 PM 40.4275 -77.0614 21° North 258 297 19,000  Level New York Center
Wed 01:31:09 PM 40.4961 -77.0239 23° Northeast 258 297 19,000 -200 Level New York Center
Wed 01:32:09 PM 40.5647 -76.9864 23° Northeast 258 297 18,600 -450 Descending New York Center
Wed 01:33:09 PM 40.6356 -76.9489 22° Northeast 258 297 18,100 -450 Descending New York Center
Wed 01:34:09 PM 40.7103 -76.9119 21° North 270 311 17,700 -450 Descending New York Center
Wed 01:35:09 PM 40.7853 -76.8722 22° Northeast 279 321 17,200 -500 Descending New York Center
Wed 01:36:09 PM 40.8603 -76.8347 21° North 279 321 16,700 -500 Descending New York Center
Wed 01:37:09 PM 40.9372 -76.7950 21° North 279 321 16,200 -500 Descending New York Center
Wed 01:38:09 PM 41.0017 -76.7594 23° Northeast 279 321 15,700 -500 Descending New York Center
Wed 01:39:09 PM 41.0767 -76.7192 22° Northeast 279 321 15,200 -350 Descending New York Center
Wed 01:40:09 PM 41.1514 -76.6817 21° North 279 321 15,000 -100 Descending New York Center
Wed 01:41:09 PM 41.2242 -76.6411 23° Northeast 279 321 15,000  Level New York Center
Wed 01:42:09 PM 41.2992 -76.6008 22° Northeast 279 321 15,000  Level New York Center
Wed 01:43:09 PM 41.3697 -76.5625 22° Northeast 279 321 15,000  Level New York Center
Wed 01:44:09 PM 41.4403 -76.5244 22° Northeast 279 321 15,000  Level New York Center
Wed 01:45:09 PM 41.5044 -76.4883 23° Northeast 279 321 15,000  Level New York Center
Wed 01:46:09 PM 41.5750 -76.4528 21° North 279 321 15,000  Level New York Center
Wed 01:47:09 PM 41.6519 -76.4094 23° Northeast 279 321 15,000 -850 Level New York Center
Wed 01:48:09 PM 41.7267 -76.3711 21° North 279 321 13,300 -1,750 Descending New York Center
Wed 01:49:09 PM 41.7961 -76.3158 31° Northeast 284 327 11,500 -1,750 Descending New York Center
Wed 01:50:09 PM 41.8525 -76.2675 33° Northeast 278 320 9,800 -1,700 Descending New York Center
Wed 01:51:09 PM 41.9192 -76.2175 29° Northeast 278 320 8,100 -1,900 Descending New York Center
Wed 01:52:09 PM 41.9864 -76.1614 32° Northeast 267 307 6,000 -1,900 Descending New York Center
Wed 01:53:09 PM 42.0408 -76.1044 38° Northeast 256 295 4,300 -1,150 Descending New York Center
Wed 01:54:09 PM 42.0772 -76.0347 55° Northeast 240 276 3,700 -350 Descending New York Center
Wed 01:55:09 PM 42.1131 -75.9789 49° Northeast 217 250 3,600 -500 Descending New York Center
Wed 01:56:09 PM 42.1517 -75.9542 25° Northeast 173 199 2,700 -750 Descending New York Center
Wed 01:57:09 PM 42.1808 -75.9564 357° North 127 146 2,100 3,150 Descending New York Center
Wed 01:58:09 PM 42.2208 -75.9456 11° North 127 146 9,000 3,450 Climbing New York Center
Wed 01:59:09 PM 42.2586 -75.9344 12° North 127 146 9,000  Level New York Center
Wed 02:00:09 PM 42.2944 -75.9233 13° North 127 146 9,000  Level New York Center
Wed 02:01:09 PM 42.3242 -75.9144 12° North 127 146 9,000  Level New York Center
Wed 02:02:09 PM 42.3242 -75.9144 225° Southwest 127 146 9,000  Level New York Center

Login

Don't have an account? Register now (free) for customized features, flight alerts, and more!